Conotton, Ohio
Current Conditions -  °F | °C
As of 4:53 AM on Thursday 23 Oct 2014 (Local Time) from KPHD Reporting Station
Haze Haze  
Wind Chill: 42°   Ceiling: Unl
Heat Index: 42°   Visibility: 2mi
Dew Point: 41°   Wind: 0mph
Humidity: 96%   Direction: NA
Pressure: 30.19"   Gusts: NA
Location:  40.4357°N, 81.1746°W
Report Text: KPHD 230853Z AUTO 00000KT 2SM BR CLR 06/05 A3019 RMK AO2 SLP227 T00560050 56003
Loading
Personal Weather Stations






























Interactive Weather Map
Tropical Storm Tracking
New forecast layout! Learn more

10-Day Weather Forecast

Advertisements
Track Severe Weather on mobile